createdAt,value
2016-12-19T17:46:17.682Z,96
2016-12-19T17:47:27.869Z,96
2016-12-19T17:48:37.368Z,96
2016-12-19T17:49:47.755Z,100
2016-12-19T17:50:58.349Z,100
2016-12-19T17:52:08.738Z,100
2016-12-19T17:53:18.835Z,100
2016-12-19T17:54:28.787Z,104
2016-12-19T17:55:39.303Z,100
2016-12-19T17:56:49.765Z,104
2016-12-19T17:58:00.366Z,100
2016-12-19T17:59:10.865Z,104
2016-12-19T18:00:21.306Z,100
2016-12-19T18:03:54.001Z,100
2016-12-19T18:08:55.634Z,100
2016-12-19T18:28:41.322Z,104
2016-12-19T18:29:26.393Z,112
2016-12-19T18:30:36.851Z,112
2016-12-19T18:31:47.126Z,108
2016-12-19T18:32:57.527Z,108
2016-12-19T18:34:07.511Z,108
2016-12-19T18:35:17.464Z,108
2016-12-19T18:36:27.349Z,108
2016-12-19T18:37:37.272Z,108
2016-12-19T18:38:18.143Z,108
2016-12-19T18:39:28.269Z,112
2016-12-19T18:40:16.098Z,88
2016-12-19T18:41:26.483Z,88
2016-12-19T18:42:36.912Z,84
2016-12-19T18:43:46.849Z,84
2016-12-19T18:44:57.400Z,88
2016-12-19T18:46:07.312Z,88
2016-12-19T18:47:17.301Z,84
2016-12-19T19:48:33.261Z,100
2016-12-19T19:49:03.897Z,116
2016-12-19T19:50:13.741Z,116
2016-12-19T19:51:23.897Z,116
2016-12-19T19:52:33.451Z,116
2016-12-19T19:53:42.864Z,112
2016-12-19T19:54:53.681Z,116
2016-12-19T19:56:03.838Z,116
2016-12-19T19:57:13.857Z,40
2016-12-19T19:58:11.403Z,112
2016-12-19T19:59:22.002Z,112
2016-12-19T20:00:32.632Z,112
2016-12-19T20:01:43.090Z,108
2016-12-19T20:02:52.922Z,112
2016-12-19T20:04:03.357Z,112
2016-12-19T20:05:13.993Z,108
2016-12-19T20:06:24.751Z,112
2016-12-19T20:07:34.936Z,112
2016-12-19T20:08:45.503Z,112
2016-12-19T20:09:56.154Z,112
2016-12-19T20:11:06.362Z,108
2016-12-19T20:12:16.376Z,108
2016-12-19T20:13:26.642Z,108
2016-12-19T20:14:36.553Z,108
2016-12-19T20:15:47.055Z,108
2016-12-19T20:16:57.739Z,112
2016-12-19T20:18:08.327Z,108
2016-12-19T20:19:18.841Z,112
2016-12-19T20:20:29.189Z,112
2016-12-19T20:21:39.687Z,112
2016-12-19T20:22:49.975Z,108
2016-12-19T20:24:00.440Z,0
2016-12-19T20:25:10.933Z,0
2016-12-19T20:26:21.490Z,0
2016-12-19T20:27:31.674Z,0
2016-12-19T20:28:42.236Z,0
2016-12-19T20:29:52.424Z,0
2016-12-19T20:31:02.285Z,0
2016-12-19T20:32:12.844Z,0
2016-12-19T20:33:22.823Z,0
2016-12-19T20:34:32.360Z,0
2016-12-19T20:35:42.810Z,0
2016-12-19T20:36:53.408Z,0
2016-12-19T20:38:03.619Z,0
2016-12-19T20:39:13.883Z,0
2016-12-19T20:40:24.643Z,0
2016-12-19T20:41:35.219Z,0
2016-12-19T20:42:45.751Z,0
2016-12-19T20:43:56.257Z,116
2016-12-19T20:45:06.911Z,112
2016-12-19T20:46:17.085Z,112
2016-12-19T20:47:27.635Z,0
2016-12-19T20:48:37.795Z,0
2016-12-19T20:49:48.302Z,0
2016-12-19T20:50:58.805Z,0
2016-12-19T20:52:09.271Z,0
2016-12-19T20:53:19.393Z,0
2016-12-19T20:54:29.530Z,0
2016-12-19T20:55:39.917Z,0
2016-12-19T20:56:50.624Z,0
2016-12-19T20:58:00.138Z,0
2016-12-19T20:59:10.689Z,0
2016-12-19T21:00:20.844Z,0
2016-12-19T21:01:30.741Z,0
2016-12-19T21:02:41.356Z,0
2016-12-19T21:03:51.692Z,0
2016-12-19T21:05:02.201Z,0
2016-12-19T21:06:12.705Z,0
2016-12-19T21:07:22.841Z,0
2016-12-19T21:08:32.976Z,0
2016-12-19T21:09:42.841Z,0
2016-12-19T21:10:52.966Z,0
2016-12-19T21:12:03.071Z,0
2016-12-19T21:13:13.303Z,0
2016-12-19T21:14:23.586Z,0
2016-12-19T21:15:33.509Z,0
2016-12-19T21:16:43.950Z,0
2016-12-19T21:17:54.152Z,0
2016-12-19T21:19:04.146Z,0
2016-12-19T21:20:14.291Z,0
2016-12-19T21:21:23.811Z,0
2016-12-19T21:22:33.766Z,0
2016-12-19T21:23:44.215Z,0
2016-12-19T21:24:54.345Z,0
2016-12-19T21:26:04.766Z,0
2016-12-19T21:27:14.555Z,0
2016-12-19T21:28:24.960Z,0
2016-12-19T21:29:35.061Z,0
2016-12-19T21:30:45.488Z,0
2016-12-19T21:31:55.899Z,0
2016-12-19T21:33:05.460Z,0
2016-12-19T21:34:15.889Z,0
2016-12-19T21:35:26.479Z,0
2016-12-19T21:36:36.994Z,0
2016-12-19T21:37:47.110Z,0
2016-12-19T21:38:57.259Z,0
2016-12-19T21:40:07.736Z,0
2016-12-19T21:41:17.834Z,0
2016-12-19T21:42:27.603Z,0
2016-12-19T21:43:37.706Z,0
2016-12-19T21:44:47.932Z,0
2016-12-19T21:45:58.159Z,0
2016-12-19T21:47:08.236Z,0
2016-12-19T21:48:18.309Z,0
2016-12-19T21:49:28.686Z,0
2016-12-19T21:50:38.822Z,0
2016-12-19T21:51:48.737Z,0
2016-12-19T21:52:58.815Z,0
2016-12-19T21:54:08.890Z,0
2016-12-19T21:55:19.276Z,0
2016-12-19T21:56:29.716Z,0
2016-12-19T21:57:40.120Z,0
2016-12-19T21:58:50.626Z,0
2016-12-19T22:00:00.387Z,0
2016-12-19T22:01:09.858Z,0
2016-12-19T22:02:20.238Z,0
2016-12-19T22:03:29.701Z,0
2016-12-19T22:04:39.881Z,0
2016-12-19T22:05:50.047Z,0
2016-12-19T22:06:59.894Z,0
2016-12-19T22:08:09.994Z,0
2016-12-19T22:09:19.438Z,0
2016-12-19T22:10:29.200Z,0
2016-12-19T22:11:39.181Z,0
2016-12-19T22:12:49.117Z,0
2016-12-19T22:13:58.877Z,0
2016-12-19T22:15:08.616Z,0
2016-12-19T22:16:18.396Z,0
2016-12-19T22:17:28.545Z,0
2016-12-19T22:18:38.277Z,0
2016-12-19T22:19:48.356Z,0
2016-12-19T22:20:58.771Z,0
2016-12-19T22:22:08.937Z,0
2016-12-19T22:23:18.444Z,0
2016-12-19T22:24:28.205Z,0
2016-12-19T22:25:38.025Z,0
2016-12-19T22:26:47.967Z,0
2016-12-19T22:27:58.056Z,0
2016-12-19T22:29:08.171Z,0
2016-12-19T22:30:17.603Z,0
2016-12-19T22:31:27.976Z,0
2016-12-19T22:32:38.335Z,0
2016-12-19T22:33:48.145Z,0
2016-12-19T22:34:58.264Z,0
2016-12-19T22:36:08.048Z,0
2016-12-19T22:37:18.417Z,0
2016-12-19T22:38:28.227Z,0
2016-12-19T22:39:38.436Z,0
2016-12-19T22:40:48.495Z,0
2016-12-19T22:41:58.370Z,0
2016-12-19T22:43:08.840Z,0
2016-12-19T22:44:18.974Z,0
2016-12-19T22:45:29.058Z,0
2016-12-19T22:46:39.438Z,0
2016-12-19T22:47:48.974Z,0
2016-12-19T22:48:58.705Z,0
2016-12-19T22:50:08.781Z,0
2016-12-19T22:51:18.856Z,0
2016-12-19T22:52:28.717Z,0
2016-12-19T22:53:38.556Z,0
2016-12-19T22:54:48.756Z,0
2016-12-19T22:55:57.946Z,0
2016-12-19T22:57:08.055Z,0
2016-12-19T22:58:17.850Z,0
2016-12-19T22:59:28.001Z,0
2016-12-19T23:00:38.168Z,0
2016-12-19T23:01:48.745Z,0
2016-12-19T23:02:58.803Z,0
2016-12-19T23:04:09.422Z,0
2016-12-19T23:05:19.218Z,0
2016-12-19T23:06:28.347Z,0
2016-12-19T23:07:37.669Z,0
2016-12-19T23:08:48.054Z,0
2016-12-19T23:09:57.833Z,0
2016-12-19T23:11:07.917Z,0
2016-12-19T23:12:17.788Z,0
2016-12-19T23:13:27.570Z,0
2016-12-19T23:14:37.037Z,0
2016-12-19T23:15:47.117Z,0
2016-12-19T23:16:57.038Z,0
2016-12-19T23:18:06.966Z,0
2016-12-19T23:19:17.018Z,0
2016-12-19T23:20:27.126Z,0
2016-12-19T23:21:37.398Z,0
2016-12-19T23:22:46.590Z,0
2016-12-19T23:23:56.660Z,0
2016-12-19T23:25:07.458Z,0
2016-12-19T23:26:17.306Z,0
2016-12-19T23:27:27.699Z,0
2016-12-19T23:28:36.842Z,0
2016-12-19T23:29:47.125Z,0
2016-12-19T23:30:57.090Z,0
2016-12-19T23:32:07.149Z,0
2016-12-19T23:33:17.204Z,0
2016-12-19T23:34:27.020Z,0
2016-12-19T23:35:37.192Z,0
2016-12-19T23:36:47.246Z,0
2016-12-19T23:37:57.310Z,0
2016-12-19T23:39:07.364Z,0
2016-12-19T23:40:17.109Z,0
2016-12-19T23:41:26.256Z,0
2016-12-19T23:42:35.721Z,0
2016-12-19T23:43:45.163Z,0
2016-12-19T23:44:55.293Z,0
2016-12-19T23:46:05.862Z,0
2016-12-19T23:47:15.638Z,0
2016-12-19T23:48:25.071Z,0
2016-12-19T23:49:34.531Z,0
2016-12-19T23:50:43.963Z,0
2016-12-19T23:51:53.746Z,0
2016-12-19T23:53:03.821Z,0
2016-12-19T23:54:13.288Z,0
2016-12-19T23:55:23.081Z,0
2016-12-19T23:56:33.533Z,0
2016-12-19T23:57:43.602Z,0
2016-12-19T23:58:53.220Z,0
